createdAt,value
2022-10-02T00:04:53.378Z,21.4
2022-10-02T00:10:20.237Z,21.4
2022-10-02T00:15:58.205Z,21.4
2022-10-02T00:21:35.927Z,21.4
2022-10-02T00:27:12.498Z,21.4
2022-10-02T00:32:35.720Z,21.4
2022-10-02T00:37:57.450Z,21.4
2022-10-02T00:43:34.088Z,21.4
2022-10-02T00:49:10.883Z,21.4
2022-10-02T00:54:47.439Z,21.4
2022-10-02T01:00:08.617Z,21.4
2022-10-02T01:05:46.157Z,21.4
2022-10-02T01:11:07.978Z,21.4
2022-10-02T01:16:29.520Z,21.4
2022-10-02T01:22:07.063Z,21.4
2022-10-02T01:27:44.119Z,21.3
2022-10-02T01:33:06.304Z,21.3
2022-10-02T01:38:42.855Z,21.4
2022-10-02T01:44:04.170Z,21.3
2022-10-02T01:49:42.166Z,21.3
2022-10-02T01:55:19.819Z,21.3
2022-10-02T02:00:56.935Z,21.3
2022-10-02T02:06:35.594Z,21.3
2022-10-02T02:12:13.154Z,21.3
2022-10-02T02:17:34.942Z,21.3
2022-10-02T02:22:56.666Z,21.3
2022-10-02T02:28:19.728Z,21.3
2022-10-02T02:33:56.780Z,21.3
2022-10-02T02:39:33.042Z,21.3
2022-10-02T02:45:13.197Z,21.3
2022-10-02T02:50:50.808Z,21.3
2022-10-02T02:56:34.255Z,21.3
2022-10-02T03:02:12.115Z,21.3
2022-10-02T03:07:49.966Z,21.3
2022-10-02T03:13:27.047Z,21.3
2022-10-02T03:19:04.537Z,21.3
2022-10-02T03:24:42.133Z,21.3
2022-10-02T03:30:47.865Z,21.3
2022-10-02T03:36:25.180Z,21.3
2022-10-02T03:42:31.858Z,21.2
2022-10-02T03:48:33.814Z,21.3
2022-10-02T03:53:57.768Z,21.2
2022-10-02T03:59:19.303Z,21.2
2022-10-02T04:04:41.157Z,21.2
2022-10-02T04:40:36.003Z,21.1
2022-10-02T04:46:13.931Z,21.1
2022-10-02T04:51:50.301Z,21.1
2022-10-02T04:57:27.335Z,21.1
2022-10-02T05:02:50.845Z,21.1
2022-10-02T05:08:29.214Z,21.1
2022-10-02T05:14:11.210Z,21.1
2022-10-02T05:19:49.335Z,21.1
2022-10-02T05:25:11.634Z,21.1
2022-10-02T05:56:00.722Z,21.2
2022-10-02T06:17:21.364Z,21.2
2022-10-02T06:28:25.253Z,21.2
2022-10-02T06:39:15.598Z,21.2
2022-10-02T07:16:07.378Z,21.2
2022-10-02T07:38:29.762Z,21.2
2022-10-02T07:44:07.868Z,21.2
2022-10-02T07:49:45.855Z,21.3
2022-10-02T07:55:29.540Z,21.2
2022-10-02T08:01:07.563Z,21.2
2022-10-02T08:06:51.104Z,21.2
2022-10-02T08:12:28.081Z,21.2
2022-10-02T08:18:23.177Z,21.3
2022-10-02T08:23:54.838Z,21.3
2022-10-02T08:29:37.709Z,21.3
2022-10-02T08:35:20.826Z,21.3
2022-10-02T08:46:19.499Z,21.3
2022-10-02T08:51:57.532Z,21.2
2022-10-02T09:02:49.199Z,21.2
2022-10-02T09:18:35.136Z,21.1
2022-10-02T09:23:58.798Z,21.1
2022-10-02T09:29:06.455Z,21.1
2022-10-02T09:34:27.783Z,21
2022-10-02T09:40:05.332Z,21
2022-10-02T09:45:42.312Z,21
2022-10-02T09:51:20.278Z,21
2022-10-02T09:56:58.120Z,20.9
2022-10-02T10:02:41.320Z,21
2022-10-02T10:08:42.776Z,21
2022-10-02T10:14:20.806Z,21
2022-10-02T10:19:58.322Z,21
2022-10-02T10:25:39.714Z,21.1
2022-10-02T10:31:17.900Z,21
2022-10-02T10:36:59.751Z,21.1
2022-10-02T10:42:21.869Z,21.1
2022-10-02T10:48:06.874Z,21.1
2022-10-02T10:55:20.415Z,21.1
2022-10-02T11:27:58.244Z,21.3
2022-10-02T11:33:36.717Z,21.2
2022-10-02T11:39:14.473Z,21.2
2022-10-02T11:44:51.096Z,21.2
2022-10-02T11:50:29.058Z,21.2
2022-10-02T11:56:08.661Z,21.2
2022-10-02T12:01:46.239Z,21.2
2022-10-02T12:07:24.530Z,21.2
2022-10-02T12:13:03.094Z,21.2
2022-10-02T12:18:40.686Z,21.2
2022-10-02T12:24:02.748Z,21.3
2022-10-02T12:29:40.849Z,21.2
2022-10-02T12:35:20.409Z,21.2
2022-10-02T12:41:01.581Z,21.3
2022-10-02T12:46:25.044Z,21.3
2022-10-02T12:52:02.199Z,21.3
2022-10-02T12:57:39.472Z,21.3
2022-10-02T13:03:45.630Z,21.3
2022-10-02T13:09:23.632Z,21.3
2022-10-02T13:14:46.579Z,21.3
2022-10-02T13:20:29.677Z,21.3
2022-10-02T13:26:11.658Z,21.3
2022-10-02T13:31:52.021Z,21.3
2022-10-02T13:37:30.102Z,21.3
2022-10-02T13:43:08.337Z,21.3
2022-10-02T13:48:45.699Z,21.3
2022-10-02T13:54:27.165Z,21.3
2022-10-02T14:00:08.699Z,21.4
2022-10-02T14:05:46.895Z,21.4
2022-10-02T14:11:24.332Z,21.3
2022-10-02T14:17:06.296Z,21.4
2022-10-02T14:22:43.589Z,21.4
2022-10-02T14:28:21.694Z,21.4
2022-10-02T14:33:58.794Z,21.4
2022-10-02T14:39:36.940Z,21.4
2022-10-02T14:45:15.683Z,21.3
2022-10-02T14:50:53.144Z,21.4
2022-10-02T14:56:31.054Z,21.4
2022-10-02T15:24:49.436Z,21.5
2022-10-02T15:30:50.919Z,21.5
2022-10-02T15:36:30.808Z,21.6
2022-10-02T15:42:11.310Z,21.5
2022-10-02T15:47:49.626Z,21.6
2022-10-02T15:53:26.900Z,21.5
2022-10-02T15:59:09.970Z,21.6
2022-10-02T16:04:48.117Z,21.6
2022-10-02T16:10:24.626Z,21.6
2022-10-02T16:16:03.413Z,21.6
2022-10-02T16:21:41.895Z,21.6
2022-10-02T16:28:37.699Z,21.6
2022-10-02T16:33:45.041Z,21.6
2022-10-02T16:39:23.110Z,21.6
2022-10-02T16:45:02.192Z,21.6
2022-10-02T16:50:25.384Z,21.6
2022-10-02T16:56:03.224Z,21.6
2022-10-02T17:01:59.314Z,21.6
2022-10-02T17:07:35.150Z,21.6
2022-10-02T17:13:12.193Z,21.6
2022-10-02T17:18:52.009Z,21.5
2022-10-02T17:24:30.098Z,21.5
2022-10-02T17:30:11.889Z,21.5
2022-10-02T17:35:54.081Z,21.5
2022-10-02T17:41:32.641Z,21.5
2022-10-02T17:47:15.536Z,21.5
2022-10-02T17:53:26.851Z,21.5
2022-10-02T17:59:04.490Z,21.5
2022-10-02T18:04:46.950Z,21.5
2022-10-02T18:10:10.474Z,21.5
2022-10-02T18:15:39.409Z,21.6
2022-10-02T18:20:45.908Z,21.6
2022-10-02T18:26:07.678Z,21.5
2022-10-02T18:32:11.222Z,21.6
2022-10-02T18:37:32.051Z,21.6
2022-10-02T18:43:09.675Z,21.6
2022-10-02T18:48:36.162Z,21.6
2022-10-02T18:54:13.189Z,21.6
2022-10-02T18:59:55.601Z,21.6
2022-10-02T19:05:19.416Z,21.6
2022-10-02T19:10:57.139Z,21.6
2022-10-02T19:16:37.976Z,21.6
2022-10-02T19:22:16.381Z,21.6
2022-10-02T19:27:38.354Z,21.6
2022-10-02T19:33:16.488Z,21.6
2022-10-02T19:38:38.790Z,21.6
2022-10-02T19:44:22.862Z,21.6
2022-10-02T19:50:05.433Z,21.6
2022-10-02T19:55:48.615Z,21.6
2022-10-02T20:01:11.997Z,21.6
2022-10-02T20:06:49.657Z,21.6
2022-10-02T20:12:00.959Z,21.6
2022-10-02T20:17:41.812Z,21.6
2022-10-02T20:23:18.147Z,21.6
2022-10-02T20:28:56.520Z,21.6
